sensor_id;sensor_type;location;lat;lon;timestamp;P1;durP1;ratioP1;P2;durP2;ratioP2
1336;SDS011;662;48.814;9.318;2024-03-23T00:53:12;11.27;;;8.47;;
1336;SDS011;662;48.814;9.318;2024-03-23T00:55:39;8.23;;;7.43;;
1336;SDS011;662;48.814;9.318;2024-03-23T00:58:05;16.60;;;7.53;;
1336;SDS011;662;48.814;9.318;2024-03-23T01:00:31;10.27;;;7.63;;
1336;SDS011;662;48.814;9.318;2024-03-23T01:02:57;8.37;;;7.10;;
1336;SDS011;662;48.814;9.318;2024-03-23T01:05:22;8.90;;;7.87;;
1336;SDS011;662;48.814;9.318;2024-03-23T01:07:48;8.23;;;7.17;;
1336;SDS011;662;48.814;9.318;2024-03-23T01:10:13;9.30;;;7.07;;
1336;SDS011;662;48.814;9.318;2024-03-23T01:12:39;8.43;;;6.87;;
1336;SDS011;662;48.814;9.318;2024-03-23T01:15:05;10.43;;;6.93;;
1336;SDS011;662;48.814;9.318;2024-03-23T01:17:31;9.00;;;7.63;;
1336;SDS011;662;48.814;9.318;2024-03-23T01:19:57;8.47;;;7.67;;
1336;SDS011;662;48.814;9.318;2024-03-23T01:22:22;8.20;;;7.47;;
1336;SDS011;662;48.814;9.318;2024-03-23T01:24:48;8.33;;;7.53;;
1336;SDS011;662;48.814;9.318;2024-03-23T01:27:13;7.13;;;6.43;;
1336;SDS011;662;48.814;9.318;2024-03-23T01:29:39;7.93;;;7.13;;
1336;SDS011;662;48.814;9.318;2024-03-23T01:32:05;8.87;;;7.10;;
1336;SDS011;662;48.814;9.318;2024-03-23T01:34:32;8.33;;;7.50;;
1336;SDS011;662;48.814;9.318;2024-03-23T01:36:57;8.57;;;7.47;;
1336;SDS011;662;48.814;9.318;2024-03-23T01:39:23;10.60;;;8.07;;
1336;SDS011;662;48.814;9.318;2024-03-23T01:41:49;8.30;;;7.33;;
1336;SDS011;662;48.814;9.318;2024-03-23T01:44:15;7.50;;;6.80;;
1336;SDS011;662;48.814;9.318;2024-03-23T01:46:41;8.17;;;7.30;;
1336;SDS011;662;48.814;9.318;2024-03-23T01:49:07;10.47;;;7.97;;
1336;SDS011;662;48.814;9.318;2024-03-23T01:51:34;7.33;;;6.23;;
1336;SDS011;662;48.814;9.318;2024-03-23T01:54:04;6.97;;;5.73;;
1336;SDS011;662;48.814;9.318;2024-03-23T01:56:32;6.97;;;4.73;;
1336;SDS011;662;48.814;9.318;2024-03-23T01:59:00;3.77;;;3.40;;
1336;SDS011;662;48.814;9.318;2024-03-23T02:01:26;3.63;;;3.23;;
1336;SDS011;662;48.814;9.318;2024-03-23T02:03:52;4.13;;;3.37;;
1336;SDS011;662;48.814;9.318;2024-03-23T02:06:18;3.73;;;3.00;;
1336;SDS011;662;48.814;9.318;2024-03-23T02:08:44;3.00;;;2.70;;
1336;SDS011;662;48.814;9.318;2024-03-23T02:11:10;3.40;;;3.10;;
1336;SDS011;662;48.814;9.318;2024-03-23T02:13:35;9.73;;;3.93;;
1336;SDS011;662;48.814;9.318;2024-03-23T02:16:01;3.67;;;2.93;;
1336;SDS011;662;48.814;9.318;2024-03-23T02:18:28;4.00;;;3.17;;
1336;SDS011;662;48.814;9.318;2024-03-23T02:20:53;3.77;;;3.20;;
1336;SDS011;662;48.814;9.318;2024-03-23T02:23:19;3.80;;;3.03;;
1336;SDS011;662;48.814;9.318;2024-03-23T02:25:45;3.60;;;2.90;;
1336;SDS011;662;48.814;9.318;2024-03-23T02:28:10;3.10;;;2.80;;
1336;SDS011;662;48.814;9.318;2024-03-23T02:30:36;3.40;;;3.10;;
1336;SDS011;662;48.814;9.318;2024-03-23T02:33:02;3.83;;;2.63;;
1336;SDS011;662;48.814;9.318;2024-03-23T02:35:28;2.90;;;2.63;;
1336;SDS011;662;48.814;9.318;2024-03-23T02:37:54;2.70;;;2.50;;
1336;SDS011;662;48.814;9.318;2024-03-23T02:40:22;3.07;;;2.77;;
1336;SDS011;662;48.814;9.318;2024-03-23T02:42:48;3.87;;;3.53;;
1336;SDS011;662;48.814;9.318;2024-03-23T02:45:14;3.30;;;2.57;;
1336;SDS011;662;48.814;9.318;2024-03-23T02:47:40;3.53;;;2.97;;
1336;SDS011;662;48.814;9.318;2024-03-23T02:50:05;3.07;;;2.87;;
1336;SDS011;662;48.814;9.318;2024-03-23T02:52:31;3.93;;;2.87;;
1336;SDS011;662;48.814;9.318;2024-03-23T02:54:57;4.03;;;2.67;;
1336;SDS011;662;48.814;9.318;2024-03-23T02:57:23;3.83;;;2.70;;
1336;SDS011;662;48.814;9.318;2024-03-23T02:59:49;3.40;;;2.80;;
1336;SDS011;662;48.814;9.318;2024-03-23T03:02:15;3.20;;;2.90;;
1336;SDS011;662;48.814;9.318;2024-03-23T03:04:41;3.30;;;2.80;;
1336;SDS011;662;48.814;9.318;2024-03-23T03:07:07;5.63;;;2.60;;
1336;SDS011;662;48.814;9.318;2024-03-23T03:09:33;3.10;;;2.90;;
1336;SDS011;662;48.814;9.318;2024-03-23T03:12:00;3.00;;;2.40;;
1336;SDS011;662;48.814;9.318;2024-03-23T03:14:28;3.20;;;2.67;;
1336;SDS011;662;48.814;9.318;2024-03-23T03:16:54;3.47;;;3.00;;
1336;SDS011;662;48.814;9.318;2024-03-23T03:19:20;2.67;;;2.47;;
1336;SDS011;662;48.814;9.318;2024-03-23T03:21:45;3.60;;;2.40;;
1336;SDS011;662;48.814;9.318;2024-03-23T03:24:12;2.53;;;2.23;;
1336;SDS011;662;48.814;9.318;2024-03-23T03:26:38;4.30;;;2.50;;
1336;SDS011;662;48.814;9.318;2024-03-23T03:29:04;4.73;;;2.67;;
1336;SDS011;662;48.814;9.318;2024-03-23T03:31:30;2.80;;;2.60;;
1336;SDS011;662;48.814;9.318;2024-03-23T03:33:55;3.40;;;3.10;;
1336;SDS011;662;48.814;9.318;2024-03-23T03:36:24;2.33;;;2.13;;
1336;SDS011;662;48.814;9.318;2024-03-23T03:38:49;3.10;;;2.70;;
1336;SDS011;662;48.814;9.318;2024-03-23T03:41:15;2.60;;;2.40;;
1336;SDS011;662;48.814;9.318;2024-03-23T03:43:41;3.53;;;2.83;;
1336;SDS011;662;48.814;9.318;2024-03-23T03:46:07;5.30;;;3.03;;
1336;SDS011;662;48.814;9.318;2024-03-23T03:48:33;2.50;;;2.30;;
1336;SDS011;662;48.814;9.318;2024-03-23T03:50:59;3.60;;;2.47;;
1336;SDS011;662;48.814;9.318;2024-03-23T03:53:24;4.00;;;2.33;;
1336;SDS011;662;48.814;9.318;2024-03-23T03:55:51;3.60;;;2.57;;
1336;SDS011;662;48.814;9.318;2024-03-23T03:58:17;4.97;;;2.97;;
1336;SDS011;662;48.814;9.318;2024-03-23T04:00:42;5.47;;;2.73;;
1336;SDS011;662;48.814;9.318;2024-03-23T04:03:08;3.27;;;2.70;;
1336;SDS011;662;48.814;9.318;2024-03-23T04:05:34;3.20;;;2.50;;
1336;SDS011;662;48.814;9.318;2024-03-23T04:07:59;3.20;;;2.90;;
1336;SDS011;662;48.814;9.318;2024-03-23T04:10:25;3.23;;;3.00;;
1336;SDS011;662;48.814;9.318;2024-03-23T04:12:51;2.50;;;2.20;;
1336;SDS011;662;48.814;9.318;2024-03-23T04:15:17;3.13;;;2.83;;
1336;SDS011;662;48.814;9.318;2024-03-23T04:17:43;3.27;;;2.97;;
1336;SDS011;662;48.814;9.318;2024-03-23T04:20:08;4.83;;;2.70;;
1336;SDS011;662;48.814;9.318;2024-03-23T04:22:36;6.30;;;2.73;;
1336;SDS011;662;48.814;9.318;2024-03-23T04:25:02;2.90;;;2.70;;
1336;SDS011;662;48.814;9.318;2024-03-23T04:27:34;3.23;;;2.83;;
1336;SDS011;662;48.814;9.318;2024-03-23T04:30:00;3.30;;;2.50;;
1336;SDS011;662;48.814;9.318;2024-03-23T04:32:27;3.00;;;2.70;;
1336;SDS011;662;48.814;9.318;2024-03-23T04:34:53;2.70;;;2.50;;
1336;SDS011;662;48.814;9.318;2024-03-23T04:37:20;3.57;;;3.27;;
1336;SDS011;662;48.814;9.318;2024-03-23T04:39:46;4.30;;;2.70;;
1336;SDS011;662;48.814;9.318;2024-03-23T04:42:14;2.77;;;2.57;;
1336;SDS011;662;48.814;9.318;2024-03-23T04:44:40;4.03;;;3.10;;
1336;SDS011;662;48.814;9.318;2024-03-23T04:47:05;12.07;;;4.17;;
1336;SDS011;662;48.814;9.318;2024-03-23T04:49:32;4.23;;;3.83;;
1336;SDS011;662;48.814;9.318;2024-03-23T04:51:58;4.37;;;3.50;;
1336;SDS011;662;48.814;9.318;2024-03-23T04:54:23;6.03;;;3.63;;
1336;SDS011;662;48.814;9.318;2024-03-23T04:56:49;4.67;;;4.20;;
1336;SDS011;662;48.814;9.318;2024-03-23T04:59:15;6.20;;;4.37;;
1336;SDS011;662;48.814;9.318;2024-03-23T05:01:40;5.23;;;4.73;;
1336;SDS011;662;48.814;9.318;2024-03-23T05:04:07;5.80;;;5.20;;
1336;SDS011;662;48.814;9.318;2024-03-23T05:06:34;7.17;;;5.50;;
1336;SDS011;662;48.814;9.318;2024-03-23T05:08:59;7.70;;;6.90;;
1336;SDS011;662;48.814;9.318;2024-03-23T05:11:40;10.20;;;7.10;;
1336;SDS011;662;48.814;9.318;2024-03-23T05:14:11;9.50;;;7.70;;
1336;SDS011;662;48.814;9.318;2024-03-23T05:16:38;14.57;;;9.00;;
1336;SDS011;662;48.814;9.318;2024-03-23T05:19:06;12.50;;;10.67;;
1336;SDS011;662;48.814;9.318;2024-03-23T05:21:32;15.67;;;10.97;;
1336;SDS011;662;48.814;9.318;2024-03-23T05:23:57;17.23;;;11.10;;
1336;SDS011;662;48.814;9.318;2024-03-23T05:26:23;15.27;;;12.13;;
1336;SDS011;662;48.814;9.318;2024-03-23T05:28:51;12.27;;;10.97;;
1336;SDS011;662;48.814;9.318;2024-03-23T05:31:26;14.97;;;11.27;;
1336;SDS011;662;48.814;9.318;2024-03-23T05:33:52;14.73;;;12.73;;
1336;SDS011;662;48.814;9.318;2024-03-23T05:36:18;15.20;;;12.50;;
1336;SDS011;662;48.814;9.318;2024-03-23T05:38:44;16.30;;;12.30;;
1336;SDS011;662;48.814;9.318;2024-03-23T05:41:09;16.10;;;12.43;;
1336;SDS011;662;48.814;9.318;2024-03-23T05:43:36;15.40;;;11.57;;
1336;SDS011;662;48.814;9.318;2024-03-23T05:46:01;14.40;;;12.87;;
1336;SDS011;662;48.814;9.318;2024-03-23T05:48:27;13.63;;;11.90;;
1336;SDS011;662;48.814;9.318;2024-03-23T05:50:55;14.37;;;11.90;;
1336;SDS011;662;48.814;9.318;2024-03-23T05:53:21;17.13;;;11.40;;
1336;SDS011;662;48.814;9.318;2024-03-23T05:55:47;14.63;;;11.33;;
1336;SDS011;662;48.814;9.318;2024-03-23T05:58:14;14.50;;;11.73;;
1336;SDS011;662;48.814;9.318;2024-03-23T06:00:40;16.40;;;12.23;;
1336;SDS011;662;48.814;9.318;2024-03-23T06:03:07;13.93;;;10.93;;
1336;SDS011;662;48.814;9.318;2024-03-23T06:05:33;14.93;;;11.20;;
1336;SDS011;662;48.814;9.318;2024-03-23T06:07:59;11.93;;;10.60;;
1336;SDS011;662;48.814;9.318;2024-03-23T06:10:24;8.43;;;6.70;;
1336;SDS011;662;48.814;9.318;2024-03-23T06:12:50;9.10;;;6.20;;
1336;SDS011;662;48.814;9.318;2024-03-23T06:15:19;7.73;;;5.17;;
1336;SDS011;662;48.814;9.318;2024-03-23T06:17:45;5.63;;;5.03;;
1336;SDS011;662;48.814;9.318;2024-03-23T06:20:12;7.27;;;4.07;;
1336;SDS011;662;48.814;9.318;2024-03-23T06:22:38;3.53;;;3.10;;
1336;SDS011;662;48.814;9.318;2024-03-23T06:25:04;3.80;;;3.40;;
1336;SDS011;662;48.814;9.318;2024-03-23T06:27:30;4.60;;;3.77;;
1336;SDS011;662;48.814;9.318;2024-03-23T06:29:57;4.60;;;3.60;;
1336;SDS011;662;48.814;9.318;2024-03-23T06:32:26;3.67;;;2.70;;
1336;SDS011;662;48.814;9.318;2024-03-23T06:34:52;3.00;;;2.70;;
1336;SDS011;662;48.814;9.318;2024-03-23T06:37:18;3.10;;;2.80;;
1336;SDS011;662;48.814;9.318;2024-03-23T06:39:45;2.63;;;2.43;;
1336;SDS011;662;48.814;9.318;2024-03-23T06:42:11;2.60;;;2.40;;
1336;SDS011;662;48.814;9.318;2024-03-23T06:44:37;3.43;;;2.10;;
1336;SDS011;662;48.814;9.318;2024-03-23T06:47:03;2.90;;;1.70;;
1336;SDS011;662;48.814;9.318;2024-03-23T06:49:29;3.20;;;2.03;;
1336;SDS011;662;48.814;9.318;2024-03-23T06:51:55;1.93;;;1.70;;
1336;SDS011;662;48.814;9.318;2024-03-23T06:54:20;2.10;;;1.90;;
1336;SDS011;662;48.814;9.318;2024-03-23T06:56:46;2.20;;;1.90;;
1336;SDS011;662;48.814;9.318;2024-03-23T06:59:12;2.20;;;2.00;;
1336;SDS011;662;48.814;9.318;2024-03-23T07:01:38;2.43;;;1.97;;
1336;SDS011;662;48.814;9.318;2024-03-23T07:04:03;1.40;;;1.30;;
1336;SDS011;662;48.814;9.318;2024-03-23T07:06:29;3.30;;;1.47;;
1336;SDS011;662;48.814;9.318;2024-03-23T07:08:55;1.63;;;1.30;;
1336;SDS011;662;48.814;9.318;2024-03-23T07:11:22;1.10;;;1.07;;
1336;SDS011;662;48.814;9.318;2024-03-23T07:13:51;1.47;;;1.37;;
1336;SDS011;662;48.814;9.318;2024-03-23T07:16:19;2.20;;;1.10;;
1336;SDS011;662;48.814;9.318;2024-03-23T07:18:45;1.07;;;0.87;;
1336;SDS011;662;48.814;9.318;2024-03-23T07:21:11;2.23;;;1.30;;
1336;SDS011;662;48.814;9.318;2024-03-23T07:23:37;1.20;;;1.10;;
1336;SDS011;662;48.814;9.318;2024-03-23T07:26:04;1.17;;;1.00;;
1336;SDS011;662;48.814;9.318;2024-03-23T07:28:30;1.33;;;0.80;;
1336;SDS011;662;48.814;9.318;2024-03-23T07:31:04;1.30;;;1.23;;
1336;SDS011;662;48.814;9.318;2024-03-23T07:33:30;1.53;;;0.93;;
1336;SDS011;662;48.814;9.318;2024-03-23T07:35:56;0.93;;;0.93;;
1336;SDS011;662;48.814;9.318;2024-03-23T07:38:21;1.40;;;1.30;;
1336;SDS011;662;48.814;9.318;2024-03-23T07:40:48;1.23;;;1.13;;
1336;SDS011;662;48.814;9.318;2024-03-23T07:43:20;1.60;;;1.00;;
1336;SDS011;662;48.814;9.318;2024-03-23T07:45:53;1.00;;;1.00;;
1336;SDS011;662;48.814;9.318;2024-03-23T07:48:18;0.80;;;0.80;;
1336;SDS011;662;48.814;9.318;2024-03-23T07:50:55;1.27;;;1.00;;
1336;SDS011;662;48.814;9.318;2024-03-23T07:53:29;0.77;;;0.77;;
1336;SDS011;662;48.814;9.318;2024-03-23T07:55:56;1.03;;;0.93;;
1336;SDS011;662;48.814;9.318;2024-03-23T07:58:23;0.70;;;0.70;;
1336;SDS011;662;48.814;9.318;2024-03-23T08:00:49;0.87;;;0.87;;
1336;SDS011;662;48.814;9.318;2024-03-23T08:03:15;0.90;;;0.90;;
1336;SDS011;662;48.814;9.318;2024-03-23T08:05:41;0.90;;;0.90;;
1336;SDS011;662;48.814;9.318;2024-03-23T08:08:06;0.90;;;0.90;;
1336;SDS011;662;48.814;9.318;2024-03-23T08:10:32;0.80;;;0.80;;
1336;SDS011;662;48.814;9.318;2024-03-23T08:12:58;0.80;;;0.80;;
1336;SDS011;662;48.814;9.318;2024-03-23T08:15:23;1.03;;;1.03;;
1336;SDS011;662;48.814;9.318;2024-03-23T08:17:50;1.80;;;1.10;;
1336;SDS011;662;48.814;9.318;2024-03-23T08:20:16;1.00;;;0.90;;
1336;SDS011;662;48.814;9.318;2024-03-23T08:22:41;0.90;;;0.90;;
1336;SDS011;662;48.814;9.318;2024-03-23T08:25:07;0.70;;;0.70;;
1336;SDS011;662;48.814;9.318;2024-03-23T08:27:32;1.33;;;0.70;;
1336;SDS011;662;48.814;9.318;2024-03-23T08:29:58;0.80;;;0.80;;
1336;SDS011;662;48.814;9.318;2024-03-23T08:32:24;0.80;;;0.80;;
1336;SDS011;662;48.814;9.318;2024-03-23T08:34:49;0.83;;;0.70;;
1336;SDS011;662;48.814;9.318;2024-03-23T08:37:15;1.20;;;0.80;;
1336;SDS011;662;48.814;9.318;2024-03-23T08:39:43;0.70;;;0.70;;
1336;SDS011;662;48.814;9.318;2024-03-23T08:42:08;0.80;;;0.80;;
1336;SDS011;662;48.814;9.318;2024-03-23T08:44:34;0.77;;;0.70;;
1336;SDS011;662;48.814;9.318;2024-03-23T08:47:01;0.80;;;0.80;;
1336;SDS011;662;48.814;9.318;2024-03-23T08:49:26;1.10;;;1.00;;
1336;SDS011;662;48.814;9.318;2024-03-23T08:51:52;1.87;;;0.80;;
1336;SDS011;662;48.814;9.318;2024-03-23T08:54:19;1.40;;;1.30;;
1336;SDS011;662;48.814;9.318;2024-03-23T08:56:45;1.20;;;1.10;;
1336;SDS011;662;48.814;9.318;2024-03-23T08:59:11;1.40;;;1.30;;
1336;SDS011;662;48.814;9.318;2024-03-23T09:01:37;1.73;;;1.30;;
1336;SDS011;662;48.814;9.318;2024-03-23T09:04:03;6.77;;;2.43;;
1336;SDS011;662;48.814;9.318;2024-03-23T09:06:29;3.40;;;2.00;;
1336;SDS011;662;48.814;9.318;2024-03-23T09:08:54;2.73;;;1.83;;
1336;SDS011;662;48.814;9.318;2024-03-23T09:11:20;2.90;;;1.43;;
1336;SDS011;662;48.814;9.318;2024-03-23T09:13:46;1.97;;;1.30;;
1336;SDS011;662;48.814;9.318;2024-03-23T09:16:11;5.33;;;2.27;;
1336;SDS011;662;48.814;9.318;2024-03-23T09:18:37;4.03;;;2.20;;
1336;SDS011;662;48.814;9.318;2024-03-23T09:21:04;3.90;;;2.10;;
1336;SDS011;662;48.814;9.318;2024-03-23T09:23:35;2.10;;;1.80;;
1336;SDS011;662;48.814;9.318;2024-03-23T09:26:04;4.43;;;2.43;;
1336;SDS011;662;48.814;9.318;2024-03-23T09:28:30;6.03;;;2.50;;
1336;SDS011;662;48.814;9.318;2024-03-23T09:31:01;3.13;;;2.07;;
1336;SDS011;662;48.814;9.318;2024-03-23T09:33:28;3.13;;;2.23;;
1336;SDS011;662;48.814;9.318;2024-03-23T09:35:54;3.90;;;2.90;;
1336;SDS011;662;48.814;9.318;2024-03-23T09:38:24;3.47;;;2.50;;
1336;SDS011;662;48.814;9.318;2024-03-23T09:40:56;2.50;;;2.20;;
1336;SDS011;662;48.814;9.318;2024-03-23T09:43:22;4.63;;;2.60;;
1336;SDS011;662;48.814;9.318;2024-03-23T09:45:48;7.53;;;2.93;;
1336;SDS011;662;48.814;9.318;2024-03-23T09:48:14;3.13;;;2.83;;
1336;SDS011;662;48.814;9.318;2024-03-23T09:50:41;3.83;;;2.90;;
1336;SDS011;662;48.814;9.318;2024-03-23T09:53:08;4.40;;;2.70;;
1336;SDS011;662;48.814;9.318;2024-03-23T09:55:36;5.00;;;2.83;;
1336;SDS011;662;48.814;9.318;2024-03-23T09:58:02;5.50;;;2.87;;
1336;SDS011;662;48.814;9.318;2024-03-23T10:00:30;5.20;;;3.37;;
1336;SDS011;662;48.814;9.318;2024-03-23T10:02:58;5.57;;;2.70;;
1336;SDS011;662;48.814;9.318;2024-03-23T10:05:27;10.00;;;3.40;;
1336;SDS011;662;48.814;9.318;2024-03-23T10:10:41;7.67;;;3.17;;
1336;SDS011;662;48.814;9.318;2024-03-23T10:13:07;3.97;;;3.17;;
1336;SDS011;662;48.814;9.318;2024-03-23T10:15:36;5.27;;;3.20;;
1336;SDS011;662;48.814;9.318;2024-03-23T10:18:20;6.07;;;3.50;;
1336;SDS011;662;48.814;9.318;2024-03-23T10:21:06;3.97;;;2.97;;
1336;SDS011;662;48.814;9.318;2024-03-23T10:23:33;7.73;;;3.20;;
1336;SDS011;662;48.814;9.318;2024-03-23T10:31:26;4.97;;;3.00;;
1336;SDS011;662;48.814;9.318;2024-03-23T10:33:53;9.10;;;3.43;;
1336;SDS011;662;48.814;9.318;2024-03-23T10:36:20;5.73;;;3.50;;
1336;SDS011;662;48.814;9.318;2024-03-23T10:38:50;5.50;;;3.40;;
1336;SDS011;662;48.814;9.318;2024-03-23T10:41:17;4.50;;;3.23;;
1336;SDS011;662;48.814;9.318;2024-03-23T10:43:43;5.40;;;3.47;;
1336;SDS011;662;48.814;9.318;2024-03-23T10:46:12;7.53;;;3.37;;
1336;SDS011;662;48.814;9.318;2024-03-23T10:48:38;4.33;;;3.00;;
1336;SDS011;662;48.814;9.318;2024-03-23T10:51:06;4.73;;;3.43;;
1336;SDS011;662;48.814;9.318;2024-03-23T10:53:33;6.77;;;3.60;;
1336;SDS011;662;48.814;9.318;2024-03-23T10:55:59;7.50;;;3.30;;
1336;SDS011;662;48.814;9.318;2024-03-23T10:58:32;4.10;;;2.60;;
1336;SDS011;662;48.814;9.318;2024-03-23T11:01:03;5.00;;;3.10;;
1336;SDS011;662;48.814;9.318;2024-03-23T11:03:36;6.20;;;3.53;;
1336;SDS011;662;48.814;9.318;2024-03-23T11:06:03;6.80;;;3.90;;
1336;SDS011;662;48.814;9.318;2024-03-23T11:08:33;8.73;;;3.80;;
1336;SDS011;662;48.814;9.318;2024-03-23T11:13:49;5.90;;;3.87;;
1336;SDS011;662;48.814;9.318;2024-03-23T11:16:17;5.13;;;3.77;;
1336;SDS011;662;48.814;9.318;2024-03-23T11:21:59;6.67;;;3.43;;
1336;SDS011;662;48.814;9.318;2024-03-23T11:24:27;4.70;;;3.20;;
1336;SDS011;662;48.814;9.318;2024-03-23T11:26:52;4.10;;;2.57;;
1336;SDS011;662;48.814;9.318;2024-03-23T11:29:18;4.70;;;3.10;;
1336;SDS011;662;48.814;9.318;2024-03-23T11:31:47;2.90;;;2.57;;
1336;SDS011;662;48.814;9.318;2024-03-23T11:34:15;4.57;;;2.40;;
1336;SDS011;662;48.814;9.318;2024-03-23T11:36:41;5.10;;;2.60;;
1336;SDS011;662;48.814;9.318;2024-03-23T11:39:17;3.40;;;2.70;;
1336;SDS011;662;48.814;9.318;2024-03-23T11:41:51;5.03;;;3.17;;
1336;SDS011;662;48.814;9.318;2024-03-23T11:44:27;2.90;;;2.70;;
1336;SDS011;662;48.814;9.318;2024-03-23T11:46:52;3.13;;;2.77;;
1336;SDS011;662;48.814;9.318;2024-03-23T11:51:50;3.40;;;2.33;;
1336;SDS011;662;48.814;9.318;2024-03-23T11:54:19;5.20;;;2.70;;
1336;SDS011;662;48.814;9.318;2024-03-23T11:57:02;3.47;;;2.43;;
1336;SDS011;662;48.814;9.318;2024-03-23T11:59:32;2.30;;;2.10;;
1336;SDS011;662;48.814;9.318;2024-03-23T12:01:59;5.80;;;2.30;;
1336;SDS011;662;48.814;9.318;2024-03-23T12:04:28;2.80;;;2.60;;
1336;SDS011;662;48.814;9.318;2024-03-23T12:07:15;3.10;;;2.10;;
1336;SDS011;662;48.814;9.318;2024-03-23T12:09:43;4.17;;;2.47;;
1336;SDS011;662;48.814;9.318;2024-03-23T12:12:14;2.80;;;1.83;;
1336;SDS011;662;48.814;9.318;2024-03-23T12:17:10;2.93;;;2.13;;
1336;SDS011;662;48.814;9.318;2024-03-23T12:19:37;3.43;;;1.70;;
1336;SDS011;662;48.814;9.318;2024-03-23T12:22:07;4.50;;;2.27;;
1336;SDS011;662;48.814;9.318;2024-03-23T12:24:33;4.30;;;2.20;;
1336;SDS011;662;48.814;9.318;2024-03-23T12:27:00;2.60;;;1.77;;
1336;SDS011;662;48.814;9.318;2024-03-23T12:29:29;5.70;;;3.63;;
1336;SDS011;662;48.814;9.318;2024-03-23T12:31:59;3.80;;;2.20;;
1336;SDS011;662;48.814;9.318;2024-03-23T12:34:26;6.00;;;2.07;;
1336;SDS011;662;48.814;9.318;2024-03-23T12:36:52;3.73;;;1.90;;
1336;SDS011;662;48.814;9.318;2024-03-23T12:39:18;3.10;;;1.80;;
1336;SDS011;662;48.814;9.318;2024-03-23T12:41:44;4.60;;;1.80;;
1336;SDS011;662;48.814;9.318;2024-03-23T12:44:10;6.40;;;2.43;;
1336;SDS011;662;48.814;9.318;2024-03-23T12:46:37;9.93;;;2.80;;
1336;SDS011;662;48.814;9.318;2024-03-23T12:49:03;3.50;;;1.70;;
1336;SDS011;662;48.814;9.318;2024-03-23T12:51:30;4.23;;;2.00;;
1336;SDS011;662;48.814;9.318;2024-03-23T12:53:56;5.17;;;2.30;;
1336;SDS011;662;48.814;9.318;2024-03-23T12:56:22;4.40;;;2.40;;
1336;SDS011;662;48.814;9.318;2024-03-23T12:58:47;5.63;;;2.50;;
1336;SDS011;662;48.814;9.318;2024-03-23T13:01:16;3.23;;;2.30;;
1336;SDS011;662;48.814;9.318;2024-03-23T13:03:42;6.17;;;2.80;;
1336;SDS011;662;48.814;9.318;2024-03-23T13:06:10;4.83;;;2.80;;
1336;SDS011;662;48.814;9.318;2024-03-23T13:08:35;4.83;;;2.50;;
1336;SDS011;662;48.814;9.318;2024-03-23T13:11:01;7.13;;;2.30;;
1336;SDS011;662;48.814;9.318;2024-03-23T13:13:27;4.40;;;2.27;;
1336;SDS011;662;48.814;9.318;2024-03-23T13:15:53;4.67;;;2.07;;
1336;SDS011;662;48.814;9.318;2024-03-23T13:18:18;7.30;;;2.27;;
1336;SDS011;662;48.814;9.318;2024-03-23T13:20:44;4.67;;;2.30;;
1336;SDS011;662;48.814;9.318;2024-03-23T13:23:09;5.87;;;2.27;;
1336;SDS011;662;48.814;9.318;2024-03-23T13:25:35;3.30;;;1.70;;
1336;SDS011;662;48.814;9.318;2024-03-23T13:28:02;7.87;;;2.03;;
1336;SDS011;662;48.814;9.318;2024-03-23T13:30:28;5.37;;;2.50;;
1336;SDS011;662;48.814;9.318;2024-03-23T13:32:54;3.90;;;2.10;;
1336;SDS011;662;48.814;9.318;2024-03-23T13:35:20;6.67;;;1.90;;
1336;SDS011;662;48.814;9.318;2024-03-23T13:37:46;3.97;;;2.03;;
1336;SDS011;662;48.814;9.318;2024-03-23T13:40:12;4.30;;;2.43;;
1336;SDS011;662;48.814;9.318;2024-03-23T13:42:37;7.57;;;2.20;;
1336;SDS011;662;48.814;9.318;2024-03-23T13:45:03;4.60;;;2.47;;
1336;SDS011;662;48.814;9.318;2024-03-23T13:47:29;3.47;;;2.17;;
1336;SDS011;662;48.814;9.318;2024-03-23T13:49:55;8.40;;;2.53;;
1336;SDS011;662;48.814;9.318;2024-03-23T13:52:21;10.70;;;2.37;;
1336;SDS011;662;48.814;9.318;2024-03-23T13:54:50;5.33;;;1.97;;
1336;SDS011;662;48.814;9.318;2024-03-23T13:57:17;4.87;;;2.30;;
1336;SDS011;662;48.814;9.318;2024-03-23T13:59:46;3.10;;;1.80;;
1336;SDS011;662;48.814;9.318;2024-03-23T14:02:12;6.03;;;1.53;;
1336;SDS011;662;48.814;9.318;2024-03-23T14:04:39;4.20;;;1.50;;
1336;SDS011;662;48.814;9.318;2024-03-23T14:07:05;4.70;;;2.23;;
1336;SDS011;662;48.814;9.318;2024-03-23T14:09:32;2.83;;;1.33;;
1336;SDS011;662;48.814;9.318;2024-03-23T14:11:58;2.37;;;1.30;;
1336;SDS011;662;48.814;9.318;2024-03-23T14:14:25;3.20;;;1.80;;
1336;SDS011;662;48.814;9.318;2024-03-23T14:16:56;2.37;;;1.33;;
1336;SDS011;662;48.814;9.318;2024-03-23T14:19:24;1.70;;;1.10;;
1336;SDS011;662;48.814;9.318;2024-03-23T14:21:50;2.00;;;1.60;;
1336;SDS011;662;48.814;9.318;2024-03-23T14:24:16;5.10;;;1.70;;
1336;SDS011;662;48.814;9.318;2024-03-23T14:26:42;4.93;;;1.80;;
1336;SDS011;662;48.814;9.318;2024-03-23T14:29:07;4.90;;;1.37;;
1336;SDS011;662;48.814;9.318;2024-03-23T14:31:34;1.40;;;1.20;;
1336;SDS011;662;48.814;9.318;2024-03-23T14:34:00;2.20;;;1.30;;
1336;SDS011;662;48.814;9.318;2024-03-23T14:36:26;2.80;;;1.33;;
1336;SDS011;662;48.814;9.318;2024-03-23T14:38:51;1.40;;;1.13;;
1336;SDS011;662;48.814;9.318;2024-03-23T14:41:17;1.70;;;1.20;;
1336;SDS011;662;48.814;9.318;2024-03-23T14:43:43;2.83;;;1.20;;
1336;SDS011;662;48.814;9.318;2024-03-23T14:46:10;2.00;;;1.00;;
1336;SDS011;662;48.814;9.318;2024-03-23T14:48:36;2.13;;;1.33;;
1336;SDS011;662;48.814;9.318;2024-03-23T14:51:02;2.30;;;1.40;;
1336;SDS011;662;48.814;9.318;2024-03-23T14:53:33;1.27;;;1.13;;
1336;SDS011;662;48.814;9.318;2024-03-23T14:56:09;1.43;;;0.97;;
1336;SDS011;662;48.814;9.318;2024-03-23T14:58:37;1.47;;;1.00;;
1336;SDS011;662;48.814;9.318;2024-03-23T15:01:03;1.53;;;1.33;;
1336;SDS011;662;48.814;9.318;2024-03-23T15:03:30;1.63;;;1.20;;
1336;SDS011;662;48.814;9.318;2024-03-23T15:05:56;3.50;;;1.40;;
1336;SDS011;662;48.814;9.318;2024-03-23T15:08:24;1.20;;;1.10;;
1336;SDS011;662;48.814;9.318;2024-03-23T15:10:49;1.40;;;1.20;;
1336;SDS011;662;48.814;9.318;2024-03-23T15:13:16;1.33;;;1.23;;
1336;SDS011;662;48.814;9.318;2024-03-23T15:15:41;3.73;;;1.77;;
1336;SDS011;662;48.814;9.318;2024-03-23T15:18:16;5.10;;;1.67;;
1336;SDS011;662;48.814;9.318;2024-03-23T15:21:02;2.00;;;1.43;;
1336;SDS011;662;48.814;9.318;2024-03-23T15:23:32;2.97;;;1.60;;
1336;SDS011;662;48.814;9.318;2024-03-23T15:25:59;2.13;;;1.07;;
1336;SDS011;662;48.814;9.318;2024-03-23T15:28:26;2.80;;;1.30;;
1336;SDS011;662;48.814;9.318;2024-03-23T15:31:02;1.40;;;1.10;;
1336;SDS011;662;48.814;9.318;2024-03-23T15:33:32;3.27;;;1.20;;
1336;SDS011;662;48.814;9.318;2024-03-23T15:35:58;2.60;;;1.40;;
1336;SDS011;662;48.814;9.318;2024-03-23T15:38:25;2.93;;;2.10;;
1336;SDS011;662;48.814;9.318;2024-03-23T15:40:51;2.00;;;1.53;;
1336;SDS011;662;48.814;9.318;2024-03-23T15:43:20;2.10;;;1.10;;
1336;SDS011;662;48.814;9.318;2024-03-23T15:48:20;2.10;;;1.07;;
1336;SDS011;662;48.814;9.318;2024-03-23T15:50:53;1.33;;;1.23;;
1336;SDS011;662;48.814;9.318;2024-03-23T15:53:19;1.30;;;1.20;;
1336;SDS011;662;48.814;9.318;2024-03-23T15:55:51;1.67;;;1.03;;
1336;SDS011;662;48.814;9.318;2024-03-23T15:58:28;2.47;;;1.30;;
1336;SDS011;662;48.814;9.318;2024-03-23T16:00:58;1.80;;;1.40;;
1336;SDS011;662;48.814;9.318;2024-03-23T16:03:28;2.43;;;1.17;;
1336;SDS011;662;48.814;9.318;2024-03-23T16:05:55;2.67;;;1.43;;
1336;SDS011;662;48.814;9.318;2024-03-23T16:08:25;1.67;;;1.27;;
1336;SDS011;662;48.814;9.318;2024-03-23T16:10:51;1.47;;;1.30;;
1336;SDS011;662;48.814;9.318;2024-03-23T16:13:18;1.53;;;1.43;;
1336;SDS011;662;48.814;9.318;2024-03-23T16:15:44;1.93;;;1.30;;
1336;SDS011;662;48.814;9.318;2024-03-23T16:18:10;2.87;;;1.13;;
1336;SDS011;662;48.814;9.318;2024-03-23T16:20:36;0.90;;;0.80;;
1336;SDS011;662;48.814;9.318;2024-03-23T16:23:02;2.20;;;1.00;;
1336;SDS011;662;48.814;9.318;2024-03-23T16:25:28;1.30;;;1.20;;
1336;SDS011;662;48.814;9.318;2024-03-23T16:27:55;1.70;;;1.20;;
1336;SDS011;662;48.814;9.318;2024-03-23T16:30:21;2.00;;;1.40;;
1336;SDS011;662;48.814;9.318;2024-03-23T16:32:47;1.33;;;0.97;;
1336;SDS011;662;48.814;9.318;2024-03-23T16:35:13;2.40;;;1.20;;
1336;SDS011;662;48.814;9.318;2024-03-23T16:37:39;1.67;;;1.37;;
1336;SDS011;662;48.814;9.318;2024-03-23T16:40:04;2.10;;;1.20;;